createdAt,value
2016-09-18T00:00:22.891Z,99.72
2016-09-18T00:01:33.890Z,99.72
2016-09-18T00:02:44.894Z,98.57
2016-09-18T00:03:55.898Z,99.43
2016-09-18T00:05:06.918Z,99.99
2016-09-18T00:06:18.124Z,99.99
2016-09-18T00:07:29.127Z,99.99
2016-09-18T00:08:40.127Z,99.99
2016-09-18T00:09:51.125Z,98.62
2016-09-18T00:11:02.121Z,99.38
2016-09-18T00:12:13.123Z,99.99
2016-09-18T00:13:24.119Z,99.99
2016-09-18T00:14:35.125Z,99.99
2016-09-18T00:15:46.129Z,99.99
2016-09-18T00:16:57.136Z,99.99
2016-09-18T00:18:08.160Z,99.99
2016-09-18T00:19:19.211Z,99.38
2016-09-18T00:20:30.212Z,99.99
2016-09-18T00:21:41.210Z,99.99
2016-09-18T00:22:52.219Z,99.87
2016-09-18T00:24:03.221Z,99.87
2016-09-18T00:25:14.223Z,99.38
2016-09-18T00:26:25.224Z,99.38
2016-09-18T00:27:36.222Z,99
2016-09-18T00:28:47.220Z,99.99
2016-09-18T00:29:58.220Z,99.99
2016-09-18T00:31:09.224Z,99.99
2016-09-18T00:32:20.227Z,98.43
2016-09-18T00:33:31.430Z,99.99
2016-09-18T00:34:42.435Z,99.99
2016-09-18T00:35:53.439Z,99.38
2016-09-18T00:37:04.439Z,99.19
2016-09-18T00:38:15.453Z,99.99
2016-09-18T00:39:26.452Z,99.99
2016-09-18T00:40:37.457Z,99.99
2016-09-18T00:41:48.454Z,99.99
2016-09-18T00:42:59.456Z,99.99
2016-09-18T00:44:10.462Z,99.72
2016-09-18T00:45:21.464Z,99.62
2016-09-18T00:46:32.462Z,99.24
2016-09-18T00:47:43.468Z,99.43
2016-09-18T00:48:54.478Z,99.99
2016-09-18T00:50:05.483Z,99.99
2016-09-18T00:51:16.484Z,98.76
2016-09-18T00:52:27.490Z,98.66
2016-09-18T00:53:38.492Z,99.99
2016-09-18T00:54:49.696Z,98.66
2016-09-18T00:56:00.903Z,96.66
2016-09-18T00:57:11.917Z,95.22
2016-09-18T00:58:22.925Z,95.98
2016-09-18T00:59:33.924Z,98.09
2016-09-18T01:00:44.919Z,97.71
2016-09-18T01:01:55.924Z,96.47
2016-09-18T01:03:06.919Z,96.47
2016-09-18T01:04:18.125Z,96.94
2016-09-18T01:05:29.120Z,96.18
2016-09-18T01:06:40.117Z,98.28
2016-09-18T01:07:51.124Z,98.28
2016-09-18T01:09:02.131Z,98.19
2016-09-18T01:10:13.134Z,96.37
2016-09-18T01:11:24.129Z,98.28
2016-09-18T01:12:35.330Z,98.38
2016-09-18T01:13:46.334Z,97.61
2016-09-18T01:14:57.332Z,98.09
2016-09-18T01:16:08.336Z,98.28
2016-09-18T01:17:19.337Z,96.94
2016-09-18T01:18:30.548Z,97.71
2016-09-18T01:19:41.554Z,98.47
2016-09-18T01:20:52.553Z,99.33
2016-09-18T01:22:03.553Z,98
2016-09-18T01:23:14.568Z,99.99
2016-09-18T01:24:25.562Z,99.99
2016-09-18T01:25:36.579Z,99.99
2016-09-18T01:26:47.584Z,98.38
2016-09-18T01:27:58.576Z,99.99
2016-09-18T01:29:09.576Z,99.99
2016-09-18T01:30:20.573Z,99.43
2016-09-18T01:31:31.571Z,99.99
2016-09-18T01:32:42.577Z,99.99
2016-09-18T01:33:53.793Z,99.99
2016-09-18T01:35:04.791Z,99.99
2016-09-18T01:36:15.791Z,99.99
2016-09-18T01:37:26.789Z,99.99
2016-09-18T01:38:37.794Z,99.99
2016-09-18T01:39:49.028Z,99.99
2016-09-18T01:41:00.037Z,99.99
2016-09-18T01:42:11.049Z,99.99
2016-09-18T01:43:22.050Z,99.99
2016-09-18T01:44:33.265Z,99.99
2016-09-18T01:45:44.280Z,99.99
2016-09-18T01:46:55.487Z,99.99
2016-09-18T01:48:06.491Z,99.15
2016-09-18T01:49:17.492Z,99.99
2016-09-18T01:50:28.493Z,99.99
2016-09-18T01:51:39.498Z,99.99
2016-09-18T01:52:50.493Z,99.99
2016-09-18T01:54:01.495Z,99.99
2016-09-18T01:55:12.691Z,99.99
2016-09-18T01:56:23.695Z,99.38
2016-09-18T01:57:34.708Z,99.99
2016-09-18T01:58:45.706Z,98.43
2016-09-18T01:59:56.919Z,99.99
2016-09-18T02:01:07.925Z,99.99
2016-09-18T02:02:18.933Z,99.99
2016-09-18T02:03:29.937Z,99.99
2016-09-18T02:04:40.935Z,99.99
2016-09-18T02:05:51.936Z,99.99
2016-09-18T02:07:03.141Z,99.99
2016-09-18T02:08:14.145Z,99.58
2016-09-18T02:09:25.149Z,99.99
2016-09-18T02:10:36.149Z,99.99
2016-09-18T02:11:47.166Z,99.99
2016-09-18T02:12:58.172Z,98.52
2016-09-18T02:14:09.171Z,98.33
2016-09-18T02:15:20.176Z,99.99
2016-09-18T02:16:31.387Z,99.99
2016-09-18T02:17:42.393Z,99.99
2016-09-18T02:18:53.593Z,99.99
2016-09-18T02:20:04.603Z,99.99
2016-09-18T02:21:15.605Z,99.99
2016-09-18T02:22:26.604Z,99.99
2016-09-18T02:23:37.603Z,99.99
2016-09-18T02:24:48.608Z,99.99
2016-09-18T02:25:59.615Z,99.38
2016-09-18T02:27:10.813Z,99.99
2016-09-18T02:28:21.821Z,99.99
2016-09-18T02:29:32.824Z,99.77
2016-09-18T02:30:43.831Z,99.99
2016-09-18T02:31:54.836Z,99.99
2016-09-18T02:33:05.833Z,99.99
2016-09-18T02:34:16.839Z,99.99
2016-09-18T02:35:27.845Z,96.89
2016-09-18T02:36:38.850Z,99.99
2016-09-18T02:37:49.847Z,99.99
2016-09-18T02:39:01.249Z,99.99
2016-09-18T02:40:12.256Z,99.99
2016-09-18T02:41:23.266Z,99.99
2016-09-18T02:42:34.276Z,99.99
2016-09-18T02:43:45.310Z,99.99
2016-09-18T02:44:56.323Z,99.99
2016-09-18T02:46:07.323Z,99.99
2016-09-18T02:47:18.331Z,99.99
2016-09-18T02:48:29.540Z,98.81
2016-09-18T02:49:40.545Z,99.99
2016-09-18T02:50:51.550Z,99.99
2016-09-18T02:52:02.551Z,99.99
2016-09-18T02:53:13.557Z,99.99
2016-09-18T02:54:24.565Z,99.99
2016-09-18T02:55:35.568Z,99.99
2016-09-18T02:56:46.570Z,99.99
2016-09-18T02:57:57.789Z,99.99
2016-09-18T02:59:08.791Z,99.99
2016-09-18T03:00:19.795Z,99.99
2016-09-18T03:01:30.809Z,99.99
2016-09-18T03:02:41.839Z,99.99
2016-09-18T03:03:53.041Z,99.77
2016-09-18T03:05:04.054Z,99.99
2016-09-18T03:06:15.265Z,99.99
2016-09-18T03:07:26.264Z,99.99
2016-09-18T03:08:37.476Z,99.99
2016-09-18T03:09:48.690Z,99.99
2016-09-18T03:10:59.695Z,99.99
2016-09-18T03:12:10.696Z,99.99
2016-09-18T03:13:21.718Z,99.99
2016-09-18T03:14:32.723Z,99.99
2016-09-18T03:15:43.722Z,99.99
2016-09-18T03:16:54.724Z,99.99
2016-09-18T03:18:05.724Z,99.99
2016-09-18T03:19:16.721Z,99.99
2016-09-18T03:20:27.724Z,98.52
2016-09-18T03:21:38.935Z,99.77
2016-09-18T03:22:50.351Z,99.99
2016-09-18T03:24:01.355Z,99.29
2016-09-18T03:25:12.353Z,99.99
2016-09-18T03:26:23.361Z,99.99
2016-09-18T03:27:34.354Z,99.99
2016-09-18T03:28:45.361Z,99.99
2016-09-18T03:29:56.364Z,99.99
2016-09-18T03:31:07.387Z,99.99
2016-09-18T03:32:18.595Z,99.99
2016-09-18T03:33:29.811Z,99.99
2016-09-18T03:34:40.810Z,99.99
2016-09-18T03:35:51.815Z,98.62
2016-09-18T03:37:02.812Z,99.58
2016-09-18T03:38:13.825Z,98.24
2016-09-18T03:39:24.827Z,98.14
2016-09-18T03:40:35.828Z,97.38
2016-09-18T03:41:46.827Z,98.28
2016-09-18T03:42:57.837Z,99.99
2016-09-18T03:44:08.835Z,99.99
2016-09-18T03:45:19.838Z,99.72
2016-09-18T03:46:30.836Z,97.66
2016-09-18T03:47:41.841Z,99.99
2016-09-18T03:48:52.846Z,99.99
2016-09-18T03:50:03.851Z,99.99
2016-09-18T03:51:15.070Z,99.19
2016-09-18T03:52:26.068Z,99.99
2016-09-18T03:53:37.280Z,99.99
2016-09-18T03:54:48.286Z,99.99
2016-09-18T03:55:59.287Z,99.99
2016-09-18T03:57:10.300Z,99.38
2016-09-18T03:58:21.309Z,99.99
2016-09-18T03:59:32.315Z,99.99
2016-09-18T04:00:43.321Z,99.99
2016-09-18T04:01:54.334Z,99.99
2016-09-18T04:03:05.340Z,99.99
2016-09-18T04:04:16.340Z,99.99
2016-09-18T04:05:27.352Z,99.99
2016-09-18T04:06:38.354Z,99.99
2016-09-18T04:07:49.353Z,99.99
2016-09-18T04:09:00.561Z,99.99
2016-09-18T04:10:11.559Z,99.99
2016-09-18T04:11:22.765Z,99.99
2016-09-18T04:12:33.777Z,99.99
2016-09-18T04:13:44.783Z,99.99
2016-09-18T04:14:55.796Z,99.99
2016-09-18T04:16:06.806Z,99.99
2016-09-18T04:17:17.817Z,99.99
2016-09-18T04:18:29.027Z,99.99
2016-09-18T04:19:40.073Z,99.99
2016-09-18T04:20:51.077Z,99.99
2016-09-18T04:22:02.074Z,99.99
2016-09-18T04:23:13.074Z,99.99
2016-09-18T04:24:24.078Z,99.99
2016-09-18T04:25:35.081Z,99.87
2016-09-18T04:26:46.092Z,99.67
2016-09-18T04:27:57.098Z,99.87
2016-09-18T04:29:08.293Z,99.67
2016-09-18T04:30:19.299Z,99.99
2016-09-18T04:31:30.370Z,99.99
2016-09-18T04:32:41.588Z,99.99
2016-09-18T04:33:52.583Z,99.99
2016-09-18T04:35:03.787Z,99.99
2016-09-18T04:36:14.983Z,99.99
2016-09-18T04:37:26.181Z,99.99
2016-09-18T04:38:37.184Z,99.99
2016-09-18T04:39:48.188Z,99.99
2016-09-18T04:40:59.198Z,99.99
2016-09-18T04:42:10.208Z,99.99
2016-09-18T04:43:21.210Z,99.77
2016-09-18T04:44:32.407Z,99.99
2016-09-18T04:45:43.454Z,99.99
2016-09-18T04:46:54.456Z,99.99
2016-09-18T04:48:05.452Z,99.99
2016-09-18T04:49:16.469Z,99.99
2016-09-18T04:50:27.468Z,99.99
2016-09-18T04:51:38.462Z,99.99
2016-09-18T04:52:49.472Z,99.99
2016-09-18T04:54:00.474Z,99.99
2016-09-18T04:55:11.478Z,99.99
2016-09-18T04:56:22.465Z,99.99
2016-09-18T04:57:33.465Z,99.99
2016-09-18T04:58:44.471Z,99.99
2016-09-18T04:59:55.475Z,99.99
2016-09-18T05:01:06.674Z,99.99
2016-09-18T05:02:17.682Z,99.99
2016-09-18T05:03:28.679Z,99.99
2016-09-18T05:04:39.690Z,99.99
2016-09-18T05:05:50.727Z,99.99
2016-09-18T05:07:01.733Z,99.99
2016-09-18T05:08:12.737Z,99.99
2016-09-18T05:09:24.150Z,99.19
2016-09-18T05:10:35.154Z,99.99
2016-09-18T05:11:46.154Z,99.99
2016-09-18T05:12:57.160Z,99.24
2016-09-18T05:14:08.155Z,99.99
2016-09-18T05:15:19.363Z,99.91
2016-09-18T05:16:30.367Z,99.99
2016-09-18T05:17:41.367Z,99.19
2016-09-18T05:18:52.370Z,99.99
2016-09-18T05:20:03.419Z,99.99
2016-09-18T05:21:14.622Z,99.99
2016-09-18T05:22:25.629Z,99.99
2016-09-18T05:23:36.630Z,99.15
2016-09-18T05:24:47.638Z,99.99
2016-09-18T05:25:58.643Z,99.99
2016-09-18T05:27:09.635Z,99.99
2016-09-18T05:28:20.636Z,99.99
2016-09-18T05:29:31.641Z,99.99
2016-09-18T05:30:42.639Z,99.99
2016-09-18T05:31:53.639Z,99.99
2016-09-18T05:33:04.639Z,97.71
2016-09-18T05:34:15.847Z,99.99
2016-09-18T05:35:27.043Z,99.99
2016-09-18T05:36:38.039Z,99.99
2016-09-18T05:37:49.248Z,98.57
2016-09-18T05:39:00.451Z,99.77
2016-09-18T05:40:11.450Z,99.81
2016-09-18T05:41:22.446Z,99.99
2016-09-18T05:42:33.449Z,99.62
2016-09-18T05:43:44.450Z,99.99
2016-09-18T05:44:55.452Z,99.99
2016-09-18T05:46:06.456Z,98.47
2016-09-18T05:47:17.463Z,99.72
2016-09-18T05:48:28.460Z,98.95
2016-09-18T05:49:39.658Z,99.99
2016-09-18T05:50:50.660Z,99.99
2016-09-18T05:52:01.665Z,99.81
2016-09-18T05:53:12.669Z,98.19
2016-09-18T05:54:23.866Z,97.52
2016-09-18T05:55:34.863Z,98.71
2016-09-18T05:56:45.872Z,98.38
2016-09-18T05:57:56.870Z,99.99
2016-09-18T05:59:07.868Z,99.29
2016-09-18T06:00:18.871Z,99.99
2016-09-18T06:01:29.871Z,99.99
2016-09-18T06:02:40.870Z,99.99
2016-09-18T06:03:51.869Z,99.99
2016-09-18T06:05:02.871Z,99.99
2016-09-18T06:06:13.878Z,99.99
2016-09-18T06:07:25.077Z,99.87
2016-09-18T06:08:36.075Z,99.99
2016-09-18T06:09:47.491Z,99.99
2016-09-18T06:10:58.490Z,98.62
2016-09-18T06:12:09.470Z,99.29
2016-09-18T06:13:20.472Z,98.76
2016-09-18T06:14:31.472Z,96.99
2016-09-18T06:15:42.484Z,99.99
2016-09-18T06:16:53.485Z,99.99
2016-09-18T06:18:04.481Z,99.99
2016-09-18T06:19:15.480Z,99.99
2016-09-18T06:20:26.525Z,99.99
2016-09-18T06:21:37.810Z,98.47
2016-09-18T06:22:49.013Z,99.99
2016-09-18T06:24:00.011Z,98.19
2016-09-18T06:25:11.417Z,98.47
2016-09-18T06:26:22.419Z,97.71
2016-09-18T06:27:33.639Z,99.99
2016-09-18T06:28:44.839Z,99.62
2016-09-18T06:29:55.837Z,97.42
2016-09-18T06:31:06.838Z,97.04
2016-09-18T06:32:18.033Z,99.19
2016-09-18T06:33:29.026Z,99.87
2016-09-18T06:34:40.034Z,99.72
2016-09-18T06:35:51.036Z,99.99
2016-09-18T06:37:02.031Z,97.95
2016-09-18T06:38:13.225Z,99.99
2016-09-18T06:39:24.230Z,99.99
2016-09-18T06:40:35.248Z,99.99
2016-09-18T06:41:46.446Z,99.99
2016-09-18T06:42:57.851Z,99.38
2016-09-18T06:44:08.857Z,98.62
2016-09-18T06:45:19.871Z,99.99
2016-09-18T06:46:30.875Z,99.99
2016-09-18T06:47:41.869Z,99.19
2016-09-18T06:48:52.876Z,99.99
2016-09-18T06:50:03.872Z,99.99
2016-09-18T06:51:14.867Z,99.99
2016-09-18T06:52:25.870Z,99.99
2016-09-18T06:53:36.885Z,99.99
2016-09-18T06:54:47.889Z,99.99
2016-09-18T06:55:58.891Z,99.99
2016-09-18T06:57:09.897Z,99.99
2016-09-18T06:58:20.904Z,99.99
2016-09-18T06:59:31.904Z,99.99
2016-09-18T07:00:42.910Z,99.72
2016-09-18T07:01:53.912Z,99.99
2016-09-18T07:03:04.917Z,99.99
2016-09-18T07:04:15.913Z,98.19
2016-09-18T07:05:26.908Z,98
2016-09-18T07:06:38.126Z,99.77
2016-09-18T07:07:49.132Z,99.99
2016-09-18T07:09:00.332Z,99.87
2016-09-18T07:10:11.327Z,98.62
2016-09-18T07:11:22.527Z,99.77
2016-09-18T07:12:33.534Z,99.99
2016-09-18T07:13:44.536Z,99.99
2016-09-18T07:14:55.533Z,99.77
2016-09-18T07:16:06.531Z,99.58
2016-09-18T07:17:17.525Z,98.33
2016-09-18T07:18:28.526Z,98.33
2016-09-18T07:19:39.732Z,97.56
2016-09-18T07:20:50.995Z,98.52
2016-09-18T07:22:02.193Z,98.33
2016-09-18T07:23:13.190Z,99.58
2016-09-18T07:24:24.186Z,98.81
2016-09-18T07:25:35.388Z,99.99
2016-09-18T07:26:46.383Z,97.38
2016-09-18T07:27:57.385Z,99.96
2016-09-18T07:29:08.381Z,98.33
2016-09-18T07:30:19.381Z,99.99
2016-09-18T07:31:30.385Z,98.43
2016-09-18T07:32:41.390Z,99.99
2016-09-18T07:33:52.405Z,98.43
2016-09-18T07:35:03.417Z,98.33
2016-09-18T07:36:14.421Z,99.58
2016-09-18T07:37:25.419Z,99.99
2016-09-18T07:38:36.427Z,98.62
2016-09-18T07:39:47.447Z,98.52
2016-09-18T07:40:58.449Z,99.96
2016-09-18T07:42:09.447Z,97.85
2016-09-18T07:43:20.444Z,97.38
2016-09-18T07:44:31.635Z,96.8
2016-09-18T07:45:42.658Z,98.52
2016-09-18T07:46:53.655Z,96.7
2016-09-18T07:48:04.859Z,98.24
2016-09-18T07:49:15.871Z,98.43
2016-09-18T07:50:26.864Z,99.77
2016-09-18T07:51:37.873Z,99.38
2016-09-18T07:52:48.887Z,98.14
2016-09-18T07:53:59.904Z,96.8
2016-09-18T07:55:10.904Z,97.56
2016-09-18T07:56:21.909Z,98.24
2016-09-18T07:57:32.917Z,97.28
2016-09-18T07:58:43.921Z,97.28
2016-09-18T07:59:54.934Z,97.38
2016-09-18T08:01:05.948Z,98.19
2016-09-18T08:02:16.950Z,97.66
2016-09-18T08:03:27.958Z,95.65
2016-09-18T08:04:38.963Z,98
2016-09-18T08:05:49.960Z,98
2016-09-18T08:07:01.170Z,97.04
2016-09-18T08:08:12.373Z,96.47
2016-09-18T08:09:23.580Z,96.47
2016-09-18T08:10:34.576Z,95.7
2016-09-18T08:11:45.575Z,96.66
2016-09-18T08:12:56.583Z,95.51
2016-09-18T08:14:07.584Z,95.07
2016-09-18T08:15:18.581Z,95.84
2016-09-18T08:16:29.590Z,94.59
2016-09-18T08:17:40.605Z,94.31
2016-09-18T08:18:51.610Z,95.65
2016-09-18T08:20:02.620Z,93.49
2016-09-18T08:21:13.885Z,95.31
2016-09-18T08:22:24.886Z,96.94
2016-09-18T08:23:35.887Z,95.12
2016-09-18T08:24:46.896Z,95.31
2016-09-18T08:25:58.099Z,94.93
2016-09-18T08:27:09.094Z,95.31
2016-09-18T08:28:20.100Z,94.64
2016-09-18T08:29:31.103Z,92.72
2016-09-18T08:30:42.110Z,92.39
2016-09-18T08:31:53.108Z,90.9
2016-09-18T08:33:04.115Z,87.77
2016-09-18T08:34:15.119Z,86.09
2016-09-18T08:35:26.131Z,87.34
2016-09-18T08:36:37.343Z,85.94
2016-09-18T08:37:48.364Z,85.65
2016-09-18T08:38:59.583Z,86.52
2016-09-18T08:40:10.796Z,85.61
2016-09-18T08:41:21.800Z,84.88
2016-09-18T08:42:32.816Z,86.42
2016-09-18T08:43:43.820Z,81.81
2016-09-18T08:44:54.832Z,85.4
2016-09-18T08:46:05.841Z,83.86
2016-09-18T08:47:16.853Z,84.78
2016-09-18T08:48:27.854Z,84.88
2016-09-18T08:49:38.857Z,85.27
2016-09-18T08:50:50.091Z,83.15
2016-09-18T08:52:01.103Z,84.01
2016-09-18T08:53:12.104Z,82.76
2016-09-18T08:54:23.106Z,84.69
2016-09-18T08:55:34.109Z,84.98
2016-09-18T08:56:45.117Z,85.46
2016-09-18T08:57:56.341Z,86.42
2016-09-18T08:59:07.348Z,85.46
2016-09-18T09:00:18.364Z,84.69
2016-09-18T09:01:29.374Z,85.46
2016-09-18T09:02:40.383Z,86.22
2016-09-18T09:03:51.419Z,83.92
2016-09-18T09:05:02.647Z,84.3
2016-09-18T09:06:13.867Z,85.46
2016-09-18T09:07:24.871Z,84.88
2016-09-18T09:08:35.871Z,84.78
2016-09-18T09:09:46.882Z,83.86
2016-09-18T09:10:58.092Z,83.29
2016-09-18T09:12:09.095Z,85.21
2016-09-18T09:13:20.097Z,85.21
2016-09-18T09:14:31.128Z,83.29
2016-09-18T09:15:42.138Z,83.29
2016-09-18T09:16:53.143Z,82.27
2016-09-18T09:18:04.156Z,80.54
2016-09-18T09:19:15.175Z,79.81
2016-09-18T09:20:26.183Z,80.29
2016-09-18T09:21:37.245Z,79.13
2016-09-18T09:22:48.243Z,80.29
2016-09-18T09:23:59.245Z,80.14
2016-09-18T09:25:10.458Z,77.58
2016-09-18T09:26:21.882Z,76.42
2016-09-18T09:27:32.900Z,75.68
2016-09-18T09:28:43.916Z,76.59
2016-09-18T09:29:54.933Z,74.6
2016-09-18T09:31:05.945Z,74.02
2016-09-18T09:32:17.166Z,74.6
2016-09-18T09:33:28.190Z,75.92
2016-09-18T09:34:39.401Z,75.3
2016-09-18T09:35:50.619Z,77.13
2016-09-18T09:37:01.636Z,77.19
2016-09-18T09:38:12.654Z,78.25
2016-09-18T09:39:23.682Z,78.4
2016-09-18T09:40:34.694Z,78.59
2016-09-18T09:41:45.906Z,78.69
2016-09-18T09:42:56.913Z,78.69
2016-09-18T09:44:07.936Z,79.17
2016-09-18T09:45:18.934Z,78.75
2016-09-18T09:46:29.952Z,79.71
2016-09-18T09:47:41.167Z,80
2016-09-18T09:48:52.177Z,79.71
2016-09-18T09:50:03.184Z,79.36
2016-09-18T09:51:14.211Z,78.34
2016-09-18T09:52:25.417Z,76.45
2016-09-18T09:53:36.636Z,74.27
2016-09-18T09:54:47.654Z,74.02
2016-09-18T09:55:58.865Z,72.32
2016-09-18T09:57:09.889Z,71.3
2016-09-18T09:58:20.906Z,69.98
2016-09-18T09:59:31.917Z,70.04
2016-09-18T10:00:42.932Z,70.46
2016-09-18T10:01:54.155Z,69.94
2016-09-18T10:03:05.169Z,70.52
2016-09-18T10:04:16.188Z,70.04
2016-09-18T10:05:27.203Z,71.2
2016-09-18T10:06:38.221Z,70.68
2016-09-18T10:07:49.433Z,69.71
2016-09-18T10:09:00.654Z,70.32
2016-09-18T10:10:11.667Z,68.82
2016-09-18T10:11:22.692Z,67.91
2016-09-18T10:12:33.711Z,67.63
2016-09-18T10:13:44.722Z,66.37
2016-09-18T10:14:55.734Z,66.17
2016-09-18T10:16:06.741Z,65.82
2016-09-18T10:17:17.765Z,64.85
2016-09-18T10:18:28.780Z,65.43
2016-09-18T10:19:39.804Z,65.82
2016-09-18T10:20:50.825Z,66.69
2016-09-18T10:22:02.088Z,65.79
2016-09-18T10:23:13.110Z,66.95
2016-09-18T10:24:24.131Z,67.43
2016-09-18T10:25:35.141Z,66.56
2016-09-18T10:26:46.163Z,67.59
2016-09-18T10:27:57.386Z,67.98
2016-09-18T10:29:08.606Z,68.95
2016-09-18T10:30:19.620Z,68.17
2016-09-18T10:31:30.640Z,67.82
2016-09-18T10:32:41.873Z,68.3
2016-09-18T10:33:52.889Z,67.33
2016-09-18T10:35:03.904Z,66.2
2016-09-18T10:36:15.122Z,66.72
2016-09-18T10:37:26.339Z,66.63
2016-09-18T10:38:37.398Z,65.2
2016-09-18T10:39:48.421Z,66.05
2016-09-18T10:40:59.424Z,64.59
2016-09-18T10:42:10.643Z,65.82
2016-09-18T10:43:21.864Z,65.4
2016-09-18T10:44:32.873Z,66.75
2016-09-18T10:45:44.090Z,63.89
2016-09-18T10:46:55.298Z,63.72
2016-09-18T10:48:06.325Z,65.75
2016-09-18T10:49:17.337Z,64.92
2016-09-18T10:50:28.558Z,63.98
2016-09-18T10:51:39.781Z,63.53
2016-09-18T10:52:50.799Z,62.65
2016-09-18T10:54:01.815Z,59.58
2016-09-18T10:55:12.848Z,60.25
2016-09-18T10:56:23.870Z,61.98
2016-09-18T10:57:34.879Z,61.42
2016-09-18T10:58:45.900Z,59.19
2016-09-18T10:59:56.914Z,59.58
2016-09-18T11:01:07.942Z,59.7
2016-09-18T11:02:19.172Z,60.68
2016-09-18T11:03:30.195Z,59.34
2016-09-18T11:04:41.212Z,60.61
2016-09-18T11:05:52.438Z,59.34
2016-09-18T11:07:03.466Z,59.28
2016-09-18T11:08:14.489Z,60.58
2016-09-18T11:09:25.499Z,61.55
2016-09-18T11:10:36.510Z,61.32
2016-09-18T11:11:47.532Z,61.46
2016-09-18T11:12:58.561Z,62.33
2016-09-18T11:14:09.781Z,62.88
2016-09-18T11:15:20.792Z,63.92
2016-09-18T11:16:31.808Z,64.79
2016-09-18T11:17:42.835Z,66.02
2016-09-18T11:18:53.841Z,66.5
2016-09-18T11:20:04.859Z,65.11
2016-09-18T11:21:15.889Z,65.88
2016-09-18T11:22:26.959Z,65.69
2016-09-18T11:23:37.971Z,65.3
2016-09-18T11:24:48.991Z,65.11
2016-09-18T11:26:00.006Z,65.79
2016-09-18T11:27:11.022Z,64.34
2016-09-18T11:28:22.032Z,63.85
2016-09-18T11:29:33.053Z,63.95
2016-09-18T11:30:44.070Z,64.04
2016-09-18T11:31:55.091Z,64.72
2016-09-18T11:33:06.096Z,66.72
2016-09-18T11:34:17.112Z,67.01
2016-09-18T11:35:28.341Z,68.27
2016-09-18T11:36:39.354Z,67.4
2016-09-18T11:37:50.365Z,67.75
2016-09-18T11:39:01.382Z,67.85
2016-09-18T11:40:12.404Z,67.91
2016-09-18T11:41:23.413Z,68.78
2016-09-18T11:42:34.428Z,70.32
2016-09-18T11:43:45.446Z,68.65
2016-09-18T11:44:56.474Z,68.65
2016-09-18T11:46:07.880Z,68.98
2016-09-18T11:47:19.085Z,69.36
2016-09-18T11:48:30.305Z,67.43
2016-09-18T11:49:41.511Z,66.94
2016-09-18T11:50:52.520Z,68.1
2016-09-18T11:52:03.540Z,67.85
2016-09-18T11:53:14.551Z,66.05
2016-09-18T11:54:25.558Z,64.89
2016-09-18T11:55:36.567Z,65.37
2016-09-18T11:56:47.578Z,65.47
2016-09-18T11:57:58.604Z,64.82
2016-09-18T11:59:09.621Z,65.98
2016-09-18T12:00:20.629Z,65.98
2016-09-18T12:01:31.634Z,65.34
2016-09-18T12:02:42.652Z,64.04
2016-09-18T12:03:53.870Z,61.82
2016-09-18T12:05:04.884Z,61.36
2016-09-18T12:06:15.902Z,63.49
2016-09-18T12:07:27.118Z,63.37
2016-09-18T12:08:38.138Z,63.92
2016-09-18T12:09:49.353Z,64.01
2016-09-18T12:11:00.360Z,65.72
2016-09-18T12:12:11.378Z,65.05
2016-09-18T12:13:22.400Z,64.82
2016-09-18T12:14:33.612Z,64.59
2016-09-18T12:15:44.615Z,65.95
2016-09-18T12:16:55.629Z,67.36
2016-09-18T12:18:06.863Z,68.33
2016-09-18T12:19:17.870Z,68.4
2016-09-18T12:20:29.087Z,67.24
2016-09-18T12:21:40.103Z,68.88
2016-09-18T12:22:51.166Z,68.68
2016-09-18T12:24:02.378Z,66.56
2016-09-18T12:25:13.388Z,66.66
2016-09-18T12:26:24.403Z,66.4
2016-09-18T12:27:35.421Z,65.24
2016-09-18T12:28:46.442Z,63.34
2016-09-18T12:29:57.461Z,63.63
2016-09-18T12:31:08.476Z,64.59
2016-09-18T12:32:19.488Z,65.75
2016-09-18T12:33:30.495Z,67.49
2016-09-18T12:34:41.506Z,63.92
2016-09-18T12:35:52.509Z,63.79
2016-09-18T12:37:03.722Z,65.72
2016-09-18T12:38:14.730Z,64.47
2016-09-18T12:39:25.945Z,64.01
2016-09-18T12:40:36.961Z,64.89
2016-09-18T12:41:47.963Z,65.37
2016-09-18T12:42:58.977Z,64.89
2016-09-18T12:44:09.981Z,62.47
2016-09-18T12:45:20.992Z,64.59
2016-09-18T12:46:31.997Z,65.37
2016-09-18T12:47:43.008Z,65.17
2016-09-18T12:48:54.017Z,65.37
2016-09-18T12:50:05.039Z,66.95
2016-09-18T12:51:16.056Z,66.08
2016-09-18T12:52:27.063Z,64.82
2016-09-18T12:53:38.079Z,65.4
2016-09-18T12:54:49.104Z,64.72
2016-09-18T12:56:00.122Z,64.82
2016-09-18T12:57:11.323Z,64.82
2016-09-18T12:58:22.530Z,61.43
2016-09-18T12:59:33.538Z,65.4
2016-09-18T13:00:44.955Z,63.27
2016-09-18T13:01:56.240Z,64.72
2016-09-18T13:03:07.521Z,63.05
2016-09-18T13:04:18.866Z,65.47
2016-09-18T13:05:30.389Z,64.95
2016-09-18T13:06:41.910Z,65.37
2016-09-18T13:07:53.602Z,66.5
2016-09-18T13:09:05.320Z,64.66
2016-09-18T13:10:16.530Z,64.95
2016-09-18T13:11:27.871Z,65.72
2016-09-18T13:12:39.518Z,65.63
2016-09-18T13:13:51.226Z,65.4
2016-09-18T13:15:02.976Z,65.2
2016-09-18T13:16:15.027Z,64.79
2016-09-18T13:17:27.348Z,65.75
2016-09-18T13:18:39.100Z,68.75
2016-09-18T13:19:50.795Z,66.53
2016-09-18T13:21:02.559Z,67.3
2016-09-18T13:22:14.261Z,67.49
2016-09-18T13:23:25.938Z,67.43
2016-09-18T13:24:37.908Z,68.78
2016-09-18T13:25:49.341Z,65.69
2016-09-18T13:27:01.163Z,65.34
2016-09-18T13:28:12.975Z,66.69
2016-09-18T13:29:24.308Z,65.53
2016-09-18T13:30:35.663Z,66.59
2016-09-18T13:31:47.140Z,63.53
2016-09-18T13:32:59.077Z,60.6
2016-09-18T13:34:10.964Z,63.14
2016-09-18T13:35:22.795Z,63.6
2016-09-18T13:36:34.570Z,63.11
2016-09-18T13:37:46.300Z,61.66
2016-09-18T13:38:57.944Z,63.69
2016-09-18T13:40:09.670Z,65.24
2016-09-18T13:41:21.245Z,66.75
2016-09-18T13:42:32.966Z,66.27
2016-09-18T13:43:44.648Z,67.52
2016-09-18T13:44:55.931Z,66.17
2016-09-18T13:46:06.983Z,65.59
2016-09-18T13:47:18.414Z,65.59
2016-09-18T13:48:29.850Z,66.17
2016-09-18T13:49:41.577Z,64.98
2016-09-18T13:50:53.335Z,68.65
2016-09-18T13:52:05.093Z,65.27
2016-09-18T13:53:16.501Z,67.36
2016-09-18T13:54:27.759Z,65.43
2016-09-18T13:55:39.542Z,65.82
2016-09-18T13:56:50.859Z,68.04
2016-09-18T13:58:02.361Z,67.17
2016-09-18T13:59:13.658Z,66.49
2016-09-18T14:00:24.733Z,68.43
2016-09-18T14:01:35.739Z,70.26
2016-09-18T14:02:47.177Z,67.36
2016-09-18T14:03:58.562Z,66.14
2016-09-18T14:05:09.965Z,64.59
2016-09-18T14:06:21.363Z,63.05
2016-09-18T14:07:32.985Z,64.98
2016-09-18T14:08:44.550Z,64.89
2016-09-18T14:09:55.953Z,63.92
2016-09-18T14:11:07.672Z,65.37
2016-09-18T14:12:19.122Z,65.17
2016-09-18T14:13:30.335Z,67.01
2016-09-18T14:14:41.349Z,66.43
2016-09-18T14:15:52.460Z,66.72
2016-09-18T14:17:03.569Z,66.69
2016-09-18T14:18:14.799Z,67.27
2016-09-18T14:19:26.272Z,69.58
2016-09-18T14:20:37.285Z,68.91
2016-09-18T14:21:48.291Z,67.75
2016-09-18T14:22:59.312Z,69.29
2016-09-18T14:24:10.574Z,66.3
2016-09-18T14:25:22.130Z,68.23
2016-09-18T14:26:33.418Z,68.23
2016-09-18T14:27:44.846Z,66.4
2016-09-18T14:28:56.379Z,66.88
2016-09-18T14:30:08.434Z,68.13
2016-09-18T14:31:19.939Z,69.49
2016-09-18T14:32:31.297Z,68.71
2016-09-18T14:33:42.832Z,67.07
2016-09-18T14:34:54.684Z,67.33
2016-09-18T14:36:06.182Z,65.2
2016-09-18T14:37:17.668Z,65.91
2016-09-18T14:38:29.317Z,67.23
2016-09-18T14:39:40.967Z,66.59
2016-09-18T14:40:52.854Z,65.91
2016-09-18T14:42:04.541Z,65.24
2016-09-18T14:43:16.367Z,68.71
2016-09-18T14:44:28.189Z,66.88
2016-09-18T14:45:39.755Z,68.77
2016-09-18T14:46:51.278Z,68.68
2016-09-18T14:48:03.085Z,69.45
2016-09-18T14:49:15.061Z,68.77
2016-09-18T14:50:26.730Z,67.43
2016-09-18T14:51:38.325Z,68.1
2016-09-18T14:52:49.793Z,67.14
2016-09-18T14:54:01.404Z,67.71
2016-09-18T14:55:12.987Z,67.43
2016-09-18T14:56:24.753Z,68.77
2016-09-18T14:57:36.509Z,68.19
2016-09-18T14:58:48.331Z,68.16
2016-09-18T15:00:00.004Z,69.42
2016-09-18T15:01:11.751Z,69.9
2016-09-18T15:02:23.379Z,69.55
2016-09-18T15:03:35.116Z,68.68
2016-09-18T15:04:46.495Z,71.06
2016-09-18T15:05:57.513Z,71.06
2016-09-18T15:07:08.541Z,70.38
2016-09-18T15:08:19.550Z,71.25
2016-09-18T15:09:30.555Z,71.28
2016-09-18T15:10:41.576Z,69.16
2016-09-18T15:11:52.579Z,70.42
2016-09-18T15:13:03.604Z,68.77
2016-09-18T15:14:14.608Z,69.64
2016-09-18T15:15:25.614Z,70.51
2016-09-18T15:16:36.628Z,71
2016-09-18T15:17:47.641Z,70